Řízení letového provozu České republiky  
Aktualizace dat:  22.07.2019 13:50:25 UTC English version
   METEO Zobrazení stránky:  22.07.2019 13:51:27 UTC  
vysvětlivky
METAR EDDB 221320Z 29008KT 250V310 9999 -RA SCT049 25/12 Q1022 NOSIG=
METAR EDDC 221320Z 30007KT 220V360 CAVOK 26/10 Q1022 NOSIG=
METAR EDDE 221320Z 27011KT 240V300 CAVOK 26/11 Q1024 NOSIG=
METAR EDDF 221320Z 32005KT 260V050 CAVOK 30/11 Q1022 NOSIG=
METAR EDDM 221320Z 29005KT 230V340 CAVOK 29/12 Q1024 NOSIG=
METAR EDDN 221320Z 32011KT CAVOK 29/10 Q1023 NOSIG=
METAR EDDP 221320Z 27011KT 240V300 CAVOK 27/11 Q1022 NOSIG=
METAR EDDT 221320Z 28009KT 250V320 9999 -RA SCT048 25/13 Q1022 NOSIG=
METAR EDQM 221320Z VRB05KT CAVOK 25/10 Q1024=
METAR EPBY 221330Z 28013KT 230V300 CAVOK 24/10 Q1021=
METAR EPGD 221330Z 29013KT 9999 SCT044 21/11 Q1020=
METAR EPKK 221330Z 25012KT 210V270 CAVOK 26/13 Q1021=
METAR EPKT 221330Z 32010KT 270V350 CAVOK 26/11 Q1022=
METAR EPLL 221330Z 27013KT CAVOK 25/11 Q1021=
METAR EPPO 221330Z 30014KT 270V330 CAVOK 25/10 Q1022=
METAR EPRZ 221330Z 33007KT 250V010 9999 FEW046 26/12 Q1021=
METAR EPWA 221330Z 30012KT 250V330 CAVOK 26/11 Q1020 NOSIG=
METAR EPWR 221330Z 33008KT 300V010 CAVOK 26/11 Q1022=
METAR LHBP 221330Z 29015KT CAVOK 30/09 Q1021 NOSIG=
METAR LHSM 221315Z AUTO 02004G15KT 350V110 CAVOK 29/15 Q1022 NOSIG=
METAR LKBC 221330Z AUTO VRB07KT 9999 BKN069 27/11 Q1023=
METAR LKCV 221300Z 30005KT 230V350 CAVOK 27/14 Q1023 NOSIG RMK BLU BLU=
METAR COR LKKB 221300Z 29004KT 9999 SCT042 BKN200 27/12 Q1023 NOSIG RMK BLU BLU=
METAR LKKU NIL
METAR LKKV 221330Z 27006KT 200V310 CAVOK 26/10 Q1024 RMK REG QNH 1020=
METAR LKLN 221330Z AUTO 25008KT 210V290 9999 FEW070 BKN150 28/12 Q1023=
METAR LKMT 221330Z 05009KT 010V090 CAVOK 27/12 Q1022 NOSIG RMK REG QNH 1020=
METAR LKNA 221300Z 27009KT 240V300 9999 BKN048 BKN220 26/12 Q1023 NOSIG RMK BLU BLU=
METAR LKPD 221300Z 30008KT 250V350 CAVOK 28/10 Q1022 NOSIG RMK BLU BLU=
METAR LKPJ 221300Z AUTO 25004KT 160V320 9999 SCT064/// BKN078/// 27/15 Q1022=
METAR LKPR 221330Z 28007KT 250V320 CAVOK 28/11 Q1023 NOSIG RMK REG QNH 1020=
METAR LKTB 221330Z 09010KT CAVOK 27/15 Q1022 NOSIG RMK REG QNH 1020=
METAR LKVO 221300Z 30005KT 230V360 CAVOK 28/12 Q1023=
METAR COR LOWI 221320Z VRB04KT 9999 FEW060 OVC300 29/16 Q1023 TEMPO 06008KT=
METAR LOWL 221320Z 28009KT 260V320 9999 FEW050 BKN300 28/13 Q1024 NOSIG=
METAR LOWS 221320Z VRB02KT 9999 FEW060 SCT180 BKN300 28/16 Q1024 NOSIG=
METAR LOWW 221320Z 35006KT 320V020 CAVOK 29/13 Q1022 NOSIG=
METAR LZIB 221330Z 27007KT 230V310 CAVOK 29/11 Q1022 NOSIG=
METAR LZKZ 221330Z 22009KT CAVOK 25/17 Q1021 NOSIG=
METAR LZMC 221300Z 33010KT CAVOK 28/09 Q1023=
METAR LZPP 221330Z 35010KT 330V030 CAVOK 29/12 Q1022=
METAR LZSL 221330Z 35012KT 310V020 9999 FEW050 29/09 Q1021=
METAR LZTT 221330Z 11005KT 060V150 9999 SCT047 23/12 Q1023 NOSIG=
METAR LZZI 221330Z VRB02KT 9999 FEW050 27/13 Q1022=